sensor_id;sensor_type;location;lat;lon;timestamp;temperature;humidity
4209;DHT22;36320;48.860;2.380;2023-03-14T06:51:04;14.60;66.40
4209;DHT22;36320;48.860;2.380;2023-03-14T06:53:33;14.00;66.00
4209;DHT22;36320;48.860;2.380;2023-03-14T06:55:59;13.30;65.70
4209;DHT22;36320;48.860;2.380;2023-03-14T06:58:24;13.00;66.70
4209;DHT22;36320;48.860;2.380;2023-03-14T07:00:52;12.80;67.00
4209;DHT22;36320;48.860;2.380;2023-03-14T07:03:18;12.80;67.00
4209;DHT22;36320;48.860;2.380;2023-03-14T07:05:44;12.80;67.30
4209;DHT22;36320;48.860;2.380;2023-03-14T07:08:11;12.50;67.50
4209;DHT22;36320;48.860;2.380;2023-03-14T07:10:37;12.40;67.50
4209;DHT22;36320;48.860;2.380;2023-03-14T07:13:02;12.30;68.00
4209;DHT22;36320;48.860;2.380;2023-03-14T07:15:28;12.40;68.20
4209;DHT22;36320;48.860;2.380;2023-03-14T07:17:54;12.40;68.40
4209;DHT22;36320;48.860;2.380;2023-03-14T07:20:21;12.40;68.90
4209;DHT22;36320;48.860;2.380;2023-03-14T07:22:50;12.20;68.00
4209;DHT22;36320;48.860;2.380;2023-03-14T07:25:17;12.20;67.90
4209;DHT22;36320;48.860;2.380;2023-03-14T07:27:44;12.10;67.70
4209;DHT22;36320;48.860;2.380;2023-03-14T07:30:11;12.10;67.60
4209;DHT22;36320;48.860;2.380;2023-03-14T07:32:37;12.00;67.20
4209;DHT22;36320;48.860;2.380;2023-03-14T07:35:03;12.00;67.20
4209;DHT22;36320;48.860;2.380;2023-03-14T07:37:29;11.90;66.50
4209;DHT22;36320;48.860;2.380;2023-03-14T07:39:54;11.90;66.30
4209;DHT22;36320;48.860;2.380;2023-03-14T07:42:20;12.00;66.60
4209;DHT22;36320;48.860;2.380;2023-03-14T07:44:46;12.00;66.50
4209;DHT22;36320;48.860;2.380;2023-03-14T07:47:12;11.90;66.30
4209;DHT22;36320;48.860;2.380;2023-03-14T07:49:37;11.90;65.70
4209;DHT22;36320;48.860;2.380;2023-03-14T07:52:03;11.90;65.70
4209;DHT22;36320;48.860;2.380;2023-03-14T07:54:29;11.80;65.40
4209;DHT22;36320;48.860;2.380;2023-03-14T07:56:55;12.00;65.80
4209;DHT22;36320;48.860;2.380;2023-03-14T07:59:20;12.00;65.30
4209;DHT22;36320;48.860;2.380;2023-03-14T08:01:46;12.00;65.10
4209;DHT22;36320;48.860;2.380;2023-03-14T08:04:12;12.10;65.70
4209;DHT22;36320;48.860;2.380;2023-03-14T08:06:38;12.20;65.30
4209;DHT22;36320;48.860;2.380;2023-03-14T08:09:04;12.20;64.80
4209;DHT22;36320;48.860;2.380;2023-03-14T08:11:30;12.20;64.70
4209;DHT22;36320;48.860;2.380;2023-03-14T08:13:55;12.20;64.70
4209;DHT22;36320;48.860;2.380;2023-03-14T08:16:21;12.40;64.90
4209;DHT22;36320;48.860;2.380;2023-03-14T08:18:47;11.80;64.30
4209;DHT22;36320;48.860;2.380;2023-03-14T08:21:13;12.30;64.70
4209;DHT22;36320;48.860;2.380;2023-03-14T08:23:39;12.30;64.50
4209;DHT22;36320;48.860;2.380;2023-03-14T08:26:07;12.30;64.20
4209;DHT22;36320;48.860;2.380;2023-03-14T08:28:32;12.20;64.50
4209;DHT22;36320;48.860;2.380;2023-03-14T08:30:59;12.20;64.60
4209;DHT22;36320;48.860;2.380;2023-03-14T08:33:27;12.20;64.80
4209;DHT22;36320;48.860;2.380;2023-03-14T08:35:55;12.40;65.20
4209;DHT22;36320;48.860;2.380;2023-03-14T08:38:21;12.10;65.20
4209;DHT22;36320;48.860;2.380;2023-03-14T08:40:47;12.10;65.30
4209;DHT22;36320;48.860;2.380;2023-03-14T08:43:13;12.10;65.50
4209;DHT22;36320;48.860;2.380;2023-03-14T08:45:38;12.30;65.70
4209;DHT22;36320;48.860;2.380;2023-03-14T08:48:05;12.40;65.40
4209;DHT22;36320;48.860;2.380;2023-03-14T08:50:30;12.40;65.50
4209;DHT22;36320;48.860;2.380;2023-03-14T08:52:56;12.50;65.50
4209;DHT22;36320;48.860;2.380;2023-03-14T08:55:25;12.50;65.50
4209;DHT22;36320;48.860;2.380;2023-03-14T08:57:52;12.40;65.50
4209;DHT22;36320;48.860;2.380;2023-03-14T09:00:19;12.70;65.40
4209;DHT22;36320;48.860;2.380;2023-03-14T09:02:45;12.90;65.40
4209;DHT22;36320;48.860;2.380;2023-03-14T09:05:11;13.20;64.90
4209;DHT22;36320;48.860;2.380;2023-03-14T09:07:38;13.40;64.30
4209;DHT22;36320;48.860;2.380;2023-03-14T09:10:05;13.30;63.50
4209;DHT22;36320;48.860;2.380;2023-03-14T09:12:35;13.30;63.40
4209;DHT22;36320;48.860;2.380;2023-03-14T09:15:04;13.30;63.50
4209;DHT22;36320;48.860;2.380;2023-03-14T09:17:31;13.30;63.60
4209;DHT22;36320;48.860;2.380;2023-03-14T09:19:57;13.10;64.00
4209;DHT22;36320;48.860;2.380;2023-03-14T09:22:23;13.00;64.30
4209;DHT22;36320;48.860;2.380;2023-03-14T09:24:50;13.00;65.00
4209;DHT22;36320;48.860;2.380;2023-03-14T09:27:17;12.90;64.90
4209;DHT22;36320;48.860;2.380;2023-03-14T09:29:43;12.80;65.60
4209;DHT22;36320;48.860;2.380;2023-03-14T09:32:08;13.00;66.80
4209;DHT22;36320;48.860;2.380;2023-03-14T09:34:34;13.00;67.90
4209;DHT22;36320;48.860;2.380;2023-03-14T09:37:00;12.60;69.40
4209;DHT22;36320;48.860;2.380;2023-03-14T09:39:26;12.00;71.50
4209;DHT22;36320;48.860;2.380;2023-03-14T09:41:53;11.80;73.80
4209;DHT22;36320;48.860;2.380;2023-03-14T09:44:37;11.60;75.80
4209;DHT22;36320;48.860;2.380;2023-03-14T09:47:11;11.40;77.60
4209;DHT22;36320;48.860;2.380;2023-03-14T09:49:42;11.30;78.60
4209;DHT22;36320;48.860;2.380;2023-03-14T09:52:32;11.30;78.90
4209;DHT22;36320;48.860;2.380;2023-03-14T09:55:11;11.70;79.30
4209;DHT22;36320;48.860;2.380;2023-03-14T09:57:39;11.90;78.50
4209;DHT22;36320;48.860;2.380;2023-03-14T10:00:14;12.00;78.10
4209;DHT22;36320;48.860;2.380;2023-03-14T10:02:42;12.10;77.50
4209;DHT22;36320;48.860;2.380;2023-03-14T10:05:20;12.00;77.00
4209;DHT22;36320;48.860;2.380;2023-03-14T10:07:46;12.10;76.70
4209;DHT22;36320;48.860;2.380;2023-03-14T10:12:40;11.70;76.80
4209;DHT22;36320;48.860;2.380;2023-03-14T10:15:10;11.70;76.80
4209;DHT22;36320;48.860;2.380;2023-03-14T10:18:03;12.20;76.80
4209;DHT22;36320;48.860;2.380;2023-03-14T10:20:40;12.20;75.90
4209;DHT22;36320;48.860;2.380;2023-03-14T10:25:45;12.40;74.80
4209;DHT22;36320;48.860;2.380;2023-03-14T10:28:29;12.10;72.30
4209;DHT22;36320;48.860;2.380;2023-03-14T10:30:57;12.10;71.70
4209;DHT22;36320;48.860;2.380;2023-03-14T10:33:29;12.30;71.50
4209;DHT22;36320;48.860;2.380;2023-03-14T10:38:36;12.50;72.10
4209;DHT22;36320;48.860;2.380;2023-03-14T10:41:13;12.50;71.20
4209;DHT22;36320;48.860;2.380;2023-03-14T10:43:40;12.90;71.30
4209;DHT22;36320;48.860;2.380;2023-03-14T10:46:11;13.10;70.00
4209;DHT22;36320;48.860;2.380;2023-03-14T10:48:39;13.10;69.30
4209;DHT22;36320;48.860;2.380;2023-03-14T10:51:25;12.80;69.00
4209;DHT22;36320;48.860;2.380;2023-03-14T10:54:12;12.80;68.90
4209;DHT22;36320;48.860;2.380;2023-03-14T10:56:38;13.00;69.10
4209;DHT22;36320;48.860;2.380;2023-03-14T10:59:10;13.40;67.60
4209;DHT22;36320;48.860;2.380;2023-03-14T11:07:10;12.30;64.50
4209;DHT22;36320;48.860;2.380;2023-03-14T11:09:58;12.40;65.50
4209;DHT22;36320;48.860;2.380;2023-03-14T11:15:40;12.40;64.30
4209;DHT22;36320;48.860;2.380;2023-03-14T11:27:03;12.60;65.00
4209;DHT22;36320;48.860;2.380;2023-03-14T11:29:39;12.60;64.10
4209;DHT22;36320;48.860;2.380;2023-03-14T11:32:54;12.70;63.40
4209;DHT22;36320;48.860;2.380;2023-03-14T11:35:39;13.00;62.10
4209;DHT22;36320;48.860;2.380;2023-03-14T11:38:18;13.30;60.40
4209;DHT22;36320;48.860;2.380;2023-03-14T11:40:47;13.60;59.80
4209;DHT22;36320;48.860;2.380;2023-03-14T11:43:20;13.70;59.40
4209;DHT22;36320;48.860;2.380;2023-03-14T11:45:48;14.20;59.30
4209;DHT22;36320;48.860;2.380;2023-03-14T11:50:46;14.70;57.40
4209;DHT22;36320;48.860;2.380;2023-03-14T11:53:15;14.70;56.60
4209;DHT22;36320;48.860;2.380;2023-03-14T11:55:42;14.20;56.30
4209;DHT22;36320;48.860;2.380;2023-03-14T11:58:16;14.30;56.80
4209;DHT22;36320;48.860;2.380;2023-03-14T12:00:44;14.30;56.40
4209;DHT22;36320;48.860;2.380;2023-03-14T12:04:16;14.20;56.10
4209;DHT22;36320;48.860;2.380;2023-03-14T12:07:12;14.20;55.40
4209;DHT22;36320;48.860;2.380;2023-03-14T12:09:11;14.60;55.50
4209;DHT22;36320;48.860;2.380;2023-03-14T12:16:46;14.60;52.50
4209;DHT22;36320;48.860;2.380;2023-03-14T12:19:22;15.80;53.90
4209;DHT22;36320;48.860;2.380;2023-03-14T12:24:49;14.40;53.10
4209;DHT22;36320;48.860;2.380;2023-03-14T12:27:45;14.40;52.20
4209;DHT22;36320;48.860;2.380;2023-03-14T12:30:37;14.40;51.90
4209;DHT22;36320;48.860;2.380;2023-03-14T12:33:19;14.60;51.90
4209;DHT22;36320;48.860;2.380;2023-03-14T12:36:11;14.90;51.40
4209;DHT22;36320;48.860;2.380;2023-03-14T12:38:56;15.00;50.90
4209;DHT22;36320;48.860;2.380;2023-03-14T12:41:46;14.90;50.30
4209;DHT22;36320;48.860;2.380;2023-03-14T12:46:59;14.90;49.60
4209;DHT22;36320;48.860;2.380;2023-03-14T12:49:35;14.90;49.50
4209;DHT22;36320;48.860;2.380;2023-03-14T12:54:50;15.10;49.00
4209;DHT22;36320;48.860;2.380;2023-03-14T13:00:20;15.30;49.10
4209;DHT22;36320;48.860;2.380;2023-03-14T13:02:47;15.20;49.40
4209;DHT22;36320;48.860;2.380;2023-03-14T13:12:49;15.10;50.40
4209;DHT22;36320;48.860;2.380;2023-03-14T13:15:39;15.30;50.80
4209;DHT22;36320;48.860;2.380;2023-03-14T13:18:30;15.30;50.90
4209;DHT22;36320;48.860;2.380;2023-03-14T13:21:09;15.40;51.30
4209;DHT22;36320;48.860;2.380;2023-03-14T13:23:37;14.00;50.00
4209;DHT22;36320;48.860;2.380;2023-03-14T13:26:11;15.70;51.10
4209;DHT22;36320;48.860;2.380;2023-03-14T13:28:38;15.30;51.10
4209;DHT22;36320;48.860;2.380;2023-03-14T13:31:05;14.40;54.10
4209;DHT22;36320;48.860;2.380;2023-03-14T13:33:33;14.30;55.80
4209;DHT22;36320;48.860;2.380;2023-03-14T13:36:02;14.50;56.90
4209;DHT22;36320;48.860;2.380;2023-03-14T13:38:31;14.30;57.30
4209;DHT22;36320;48.860;2.380;2023-03-14T13:40:59;14.10;57.80
4209;DHT22;36320;48.860;2.380;2023-03-14T13:43:32;13.60;59.50
4209;DHT22;36320;48.860;2.380;2023-03-14T13:46:06;13.00;60.80
4209;DHT22;36320;48.860;2.380;2023-03-14T13:48:35;12.60;62.70
4209;DHT22;36320;48.860;2.380;2023-03-14T13:51:09;12.40;64.70
4209;DHT22;36320;48.860;2.380;2023-03-14T13:53:47;11.60;69.30
4209;DHT22;36320;48.860;2.380;2023-03-14T13:56:18;11.40;73.00
4209;DHT22;36320;48.860;2.380;2023-03-14T13:58:44;12.00;74.80
4209;DHT22;36320;48.860;2.380;2023-03-14T14:01:30;11.90;76.00
4209;DHT22;36320;48.860;2.380;2023-03-14T14:04:02;12.00;75.80
4209;DHT22;36320;48.860;2.380;2023-03-14T14:06:32;12.50;77.00
4209;DHT22;36320;48.860;2.380;2023-03-14T14:09:20;13.10;76.50
4209;DHT22;36320;48.860;2.380;2023-03-14T14:12:08;13.50;75.00
4209;DHT22;36320;48.860;2.380;2023-03-14T14:14:45;13.90;73.40
4209;DHT22;36320;48.860;2.380;2023-03-14T14:17:21;14.20;71.20
4209;DHT22;36320;48.860;2.380;2023-03-14T14:19:48;14.20;69.40
4209;DHT22;36320;48.860;2.380;2023-03-14T14:22:14;14.20;68.30
4209;DHT22;36320;48.860;2.380;2023-03-14T14:24:40;14.20;67.20
4209;DHT22;36320;48.860;2.380;2023-03-14T14:27:24;14.40;67.30
4209;DHT22;36320;48.860;2.380;2023-03-14T14:32:47;14.50;66.30
4209;DHT22;36320;48.860;2.380;2023-03-14T14:35:32;14.30;66.30
4209;DHT22;36320;48.860;2.380;2023-03-14T14:37:58;14.00;66.60
4209;DHT22;36320;48.860;2.380;2023-03-14T14:40:27;13.50;66.20
4209;DHT22;36320;48.860;2.380;2023-03-14T14:42:53;13.40;66.90
4209;DHT22;36320;48.860;2.380;2023-03-14T14:45:21;13.30;67.70
4209;DHT22;36320;48.860;2.380;2023-03-14T14:48:11;13.00;67.40
4209;DHT22;36320;48.860;2.380;2023-03-14T14:50:43;12.80;67.70
4209;DHT22;36320;48.860;2.380;2023-03-14T14:55:56;12.40;67.20
4209;DHT22;36320;48.860;2.380;2023-03-14T14:58:34;12.30;66.90
4209;DHT22;36320;48.860;2.380;2023-03-14T15:01:22;12.10;67.50
4209;DHT22;36320;48.860;2.380;2023-03-14T15:03:51;12.20;67.70
4209;DHT22;36320;48.860;2.380;2023-03-14T15:06:18;12.50;67.80
4209;DHT22;36320;48.860;2.380;2023-03-14T15:08:45;12.60;67.50
4209;DHT22;36320;48.860;2.380;2023-03-14T15:11:20;12.50;67.30
4209;DHT22;36320;48.860;2.380;2023-03-14T15:13:46;12.60;67.40
4209;DHT22;36320;48.860;2.380;2023-03-14T15:16:12;12.60;67.50
4209;DHT22;36320;48.860;2.380;2023-03-14T15:18:39;13.00;67.70
4209;DHT22;36320;48.860;2.380;2023-03-14T15:21:05;13.20;67.20
4209;DHT22;36320;48.860;2.380;2023-03-14T15:23:31;13.20;66.90
4209;DHT22;36320;48.860;2.380;2023-03-14T15:26:00;13.10;66.40
4209;DHT22;36320;48.860;2.380;2023-03-14T15:28:27;13.10;65.80
4209;DHT22;36320;48.860;2.380;2023-03-14T15:30:56;13.50;65.80
4209;DHT22;36320;48.860;2.380;2023-03-14T15:33:22;13.60;65.10
4209;DHT22;36320;48.860;2.380;2023-03-14T15:35:48;13.50;65.00
4209;DHT22;36320;48.860;2.380;2023-03-14T15:38:19;13.30;65.00
4209;DHT22;36320;48.860;2.380;2023-03-14T15:40:48;13.00;64.20
4209;DHT22;36320;48.860;2.380;2023-03-14T15:43:14;12.90;64.10
4209;DHT22;36320;48.860;2.380;2023-03-14T15:45:40;13.20;64.10
4209;DHT22;36320;48.860;2.380;2023-03-14T15:48:11;13.60;63.70
4209;DHT22;36320;48.860;2.380;2023-03-14T15:50:37;13.70;63.20
4209;DHT22;36320;48.860;2.380;2023-03-14T15:53:06;13.80;62.40
4209;DHT22;36320;48.860;2.380;2023-03-14T15:55:48;13.50;61.70
4209;DHT22;36320;48.860;2.380;2023-03-14T15:58:18;13.40;61.90
4209;DHT22;36320;48.860;2.380;2023-03-14T16:00:44;13.10;61.70
4209;DHT22;36320;48.860;2.380;2023-03-14T16:03:10;12.80;62.50
4209;DHT22;36320;48.860;2.380;2023-03-14T16:05:38;12.90;63.00
4209;DHT22;36320;48.860;2.380;2023-03-14T16:08:04;13.10;62.60
4209;DHT22;36320;48.860;2.380;2023-03-14T16:10:31;13.10;62.90
4209;DHT22;36320;48.860;2.380;2023-03-14T16:12:57;13.10;62.80
4209;DHT22;36320;48.860;2.380;2023-03-14T16:15:22;12.80;62.10
4209;DHT22;36320;48.860;2.380;2023-03-14T16:17:52;12.80;62.60
4209;DHT22;36320;48.860;2.380;2023-03-14T16:20:18;12.70;62.20
4209;DHT22;36320;48.860;2.380;2023-03-14T16:22:46;12.80;63.20
4209;DHT22;36320;48.860;2.380;2023-03-14T16:25:12;12.90;62.50
4209;DHT22;36320;48.860;2.380;2023-03-14T16:27:38;12.80;62.00
4209;DHT22;36320;48.860;2.380;2023-03-14T16:30:05;12.60;62.60
4209;DHT22;36320;48.860;2.380;2023-03-14T16:32:31;12.60;63.00
4209;DHT22;36320;48.860;2.380;2023-03-14T16:34:57;12.60;63.30
4209;DHT22;36320;48.860;2.380;2023-03-14T16:37:23;12.90;63.30
4209;DHT22;36320;48.860;2.380;2023-03-14T16:39:49;13.10;63.00
4209;DHT22;36320;48.860;2.380;2023-03-14T16:42:15;13.10;63.10
4209;DHT22;36320;48.860;2.380;2023-03-14T16:44:41;12.80;63.20
4209;DHT22;36320;48.860;2.380;2023-03-14T16:47:07;12.80;63.70
4209;DHT22;36320;48.860;2.380;2023-03-14T16:49:33;12.60;63.90
4209;DHT22;36320;48.860;2.380;2023-03-14T16:51:59;12.50;64.40
4209;DHT22;36320;48.860;2.380;2023-03-14T16:54:25;12.20;64.60
4209;DHT22;36320;48.860;2.380;2023-03-14T16:56:51;12.20;64.80
4209;DHT22;36320;48.860;2.380;2023-03-14T16:59:18;12.50;64.40
4209;DHT22;36320;48.860;2.380;2023-03-14T17:01:43;12.80;63.80
4209;DHT22;36320;48.860;2.380;2023-03-14T17:04:10;12.80;64.30
4209;DHT22;36320;48.860;2.380;2023-03-14T17:06:36;12.90;63.90
4209;DHT22;36320;48.860;2.380;2023-03-14T17:09:03;12.80;63.70
4209;DHT22;36320;48.860;2.380;2023-03-14T17:11:33;12.70;63.70
4209;DHT22;36320;48.860;2.380;2023-03-14T17:14:00;13.80;64.10
4209;DHT22;36320;48.860;2.380;2023-03-14T17:16:27;12.20;61.30
4209;DHT22;36320;48.860;2.380;2023-03-14T17:18:54;12.10;60.80
4209;DHT22;36320;48.860;2.380;2023-03-14T17:21:20;11.90;60.00
4209;DHT22;36320;48.860;2.380;2023-03-14T17:23:46;11.70;60.30
4209;DHT22;36320;48.860;2.380;2023-03-14T17:26:12;12.00;60.50
4209;DHT22;36320;48.860;2.380;2023-03-14T17:28:38;11.80;60.30
4209;DHT22;36320;48.860;2.380;2023-03-14T17:31:16;12.20;60.70
4209;DHT22;36320;48.860;2.380;2023-03-14T17:33:42;12.00;60.50
4209;DHT22;36320;48.860;2.380;2023-03-14T17:36:09;11.90;61.40
4209;DHT22;36320;48.860;2.380;2023-03-14T17:38:37;11.90;61.10
4209;DHT22;36320;48.860;2.380;2023-03-14T17:41:09;11.90;61.30
4209;DHT22;36320;48.860;2.380;2023-03-14T17:43:38;12.00;61.50
4209;DHT22;36320;48.860;2.380;2023-03-14T17:46:06;11.90;61.60
4209;DHT22;36320;48.860;2.380;2023-03-14T17:48:39;11.80;61.90
4209;DHT22;36320;48.860;2.380;2023-03-14T17:51:05;11.70;62.30
4209;DHT22;36320;48.860;2.380;2023-03-14T17:53:32;11.80;62.40
4209;DHT22;36320;48.860;2.380;2023-03-14T17:55:58;11.90;62.50
4209;DHT22;36320;48.860;2.380;2023-03-14T17:58:24;11.80;62.80
4209;DHT22;36320;48.860;2.380;2023-03-14T18:00:50;11.90;63.00
4209;DHT22;36320;48.860;2.380;2023-03-14T18:03:15;11.90;62.80
4209;DHT22;36320;48.860;2.380;2023-03-14T18:08:23;11.70;61.90
4209;DHT22;36320;48.860;2.380;2023-03-14T18:10:52;11.80;61.70
4209;DHT22;36320;48.860;2.380;2023-03-14T18:13:18;11.60;61.20
4209;DHT22;36320;48.860;2.380;2023-03-14T18:15:45;11.50;61.30
4209;DHT22;36320;48.860;2.380;2023-03-14T18:18:13;11.50;61.60
4209;DHT22;36320;48.860;2.380;2023-03-14T18:20:39;11.40;61.80
4209;DHT22;36320;48.860;2.380;2023-03-14T18:23:05;11.40;62.60
4209;DHT22;36320;48.860;2.380;2023-03-14T18:25:43;11.40;62.10
4209;DHT22;36320;48.860;2.380;2023-03-14T18:28:09;11.40;62.10
4209;DHT22;36320;48.860;2.380;2023-03-14T18:30:38;11.30;62.40
4209;DHT22;36320;48.860;2.380;2023-03-14T18:33:24;11.30;62.40
4209;DHT22;36320;48.860;2.380;2023-03-14T18:35:50;11.40;62.20
4209;DHT22;36320;48.860;2.380;2023-03-14T18:38:16;11.40;62.10
4209;DHT22;36320;48.860;2.380;2023-03-14T18:40:42;11.40;62.50
4209;DHT22;36320;48.860;2.380;2023-03-14T18:43:08;11.30;62.40
4209;DHT22;36320;48.860;2.380;2023-03-14T18:45:36;11.30;62.80
4209;DHT22;36320;48.860;2.380;2023-03-14T18:48:02;11.30;62.40
4209;DHT22;36320;48.860;2.380;2023-03-14T18:50:28;11.30;62.40
4209;DHT22;36320;48.860;2.380;2023-03-14T18:52:55;11.40;62.30
4209;DHT22;36320;48.860;2.380;2023-03-14T18:55:20;11.40;62.50
4209;DHT22;36320;48.860;2.380;2023-03-14T18:57:46;11.40;62.70
4209;DHT22;36320;48.860;2.380;2023-03-14T19:00:12;11.40;62.80
4209;DHT22;36320;48.860;2.380;2023-03-14T19:02:39;11.40;63.10
4209;DHT22;36320;48.860;2.380;2023-03-14T19:05:05;11.60;63.40
4209;DHT22;36320;48.860;2.380;2023-03-14T19:07:33;11.70;63.40
4209;DHT22;36320;48.860;2.380;2023-03-14T19:10:00;11.60;63.60
4209;DHT22;36320;48.860;2.380;2023-03-14T19:12:29;11.60;64.50
4209;DHT22;36320;48.860;2.380;2023-03-14T19:14:56;11.60;63.90
4209;DHT22;36320;48.860;2.380;2023-03-14T19:17:21;11.60;63.90
4209;DHT22;36320;48.860;2.380;2023-03-14T19:19:47;11.50;64.00
4209;DHT22;36320;48.860;2.380;2023-03-14T19:22:13;11.50;64.10
4209;DHT22;36320;48.860;2.380;2023-03-14T19:24:41;11.40;64.00
4209;DHT22;36320;48.860;2.380;2023-03-14T19:27:07;11.40;64.00
4209;DHT22;36320;48.860;2.380;2023-03-14T19:29:33;11.20;64.00
4209;DHT22;36320;48.860;2.380;2023-03-14T19:32:06;11.20;64.20
4209;DHT22;36320;48.860;2.380;2023-03-14T19:34:32;11.20;64.20
4209;DHT22;36320;48.860;2.380;2023-03-14T19:36:58;11.30;64.30
4209;DHT22;36320;48.860;2.380;2023-03-14T19:39:23;11.20;64.20
